Terminal Aerodrome Forecast
Issued by NWS

Home | Current Version | Previous Version | Text Only | Print | Product List | Glossary Off
Versions: 1 2 3 4 5 6 7 8 9 10 11 12

000
FTUS42 KMHX 291120
TAFISO
TAF
KISO 291120Z 2912/3012 12007KT P6SM SCT050
     FM300200 14004KT P6SM SCT250
     FM300800 00000KT 3SM BR SCT007
      AMD LTD TO CLD VIS AND WIND=

USA.gov is the U.S. government's official web portal to all federal, state and local government web resources and services.